sensor_id;sensor_type;location;lat;lon;timestamp;pressure;altitude;pressure_sealevel;temperature;humidity
65359;BME280;52491;45.900;6.346;2023-02-21T00:02:12;94321.41;;;25.21;26.07
65359;BME280;52491;45.900;6.346;2023-02-21T00:04:57;94328.84;;;25.19;26.04
65359;BME280;52491;45.900;6.346;2023-02-21T00:07:41;94319.25;;;25.18;26.28
65359;BME280;52491;45.900;6.346;2023-02-21T00:10:25;94314.97;;;25.17;25.90
65359;BME280;52491;45.900;6.346;2023-02-21T00:13:09;94312.28;;;25.17;25.89
65359;BME280;52491;45.900;6.346;2023-02-21T00:15:54;94311.75;;;25.15;25.88
65359;BME280;52491;45.900;6.346;2023-02-21T00:18:38;94306.63;;;25.14;26.03
65359;BME280;52491;45.900;6.346;2023-02-21T00:21:23;94311.75;;;25.15;25.62
65359;BME280;52491;45.900;6.346;2023-02-21T00:24:12;94297.59;;;25.15;26.01
65359;BME280;52491;45.900;6.346;2023-02-21T00:26:56;94291.47;;;25.14;25.80
65359;BME280;52491;45.900;6.346;2023-02-21T00:29:40;94291.69;;;25.13;25.64
65359;BME280;52491;45.900;6.346;2023-02-21T00:32:24;94278.59;;;25.11;25.97
65359;BME280;52491;45.900;6.346;2023-02-21T00:35:08;94284.75;;;25.12;25.69
65359;BME280;52491;45.900;6.346;2023-02-21T00:37:52;94279.69;;;25.10;25.64
65359;BME280;52491;45.900;6.346;2023-02-21T00:40:36;94275.94;;;25.11;25.59
65359;BME280;52491;45.900;6.346;2023-02-21T00:43:27;94277.00;;;25.10;25.70
65359;BME280;52491;45.900;6.346;2023-02-21T00:46:11;94278.06;;;25.09;25.57
65359;BME280;52491;45.900;6.346;2023-02-21T00:48:56;94284.47;;;25.08;25.64
65359;BME280;52491;45.900;6.346;2023-02-21T00:51:40;94276.47;;;25.08;25.41
65359;BME280;52491;45.900;6.346;2023-02-21T00:54:24;94273.78;;;25.08;25.38
65359;BME280;52491;45.900;6.346;2023-02-21T00:57:08;94273.22;;;25.06;25.50
65359;BME280;52491;45.900;6.346;2023-02-21T00:59:52;94278.31;;;25.08;25.38
65359;BME280;52491;45.900;6.346;2023-02-21T01:02:36;94276.72;;;25.07;25.34
65359;BME280;52491;45.900;6.346;2023-02-21T01:05:20;94269.75;;;25.06;25.31
65359;BME280;52491;45.900;6.346;2023-02-21T01:08:04;94270.56;;;25.06;25.15
65359;BME280;52491;45.900;6.346;2023-02-21T01:10:48;94266.31;;;25.05;25.21
65359;BME280;52491;45.900;6.346;2023-02-21T01:13:32;94267.38;;;25.04;24.86
65359;BME280;52491;45.900;6.346;2023-02-21T01:16:16;94269.75;;;25.06;25.38
65359;BME280;52491;45.900;6.346;2023-02-21T01:19:00;94262.03;;;25.04;25.38
65359;BME280;52491;45.900;6.346;2023-02-21T01:21:44;94263.06;;;25.03;25.22
65359;BME280;52491;45.900;6.346;2023-02-21T01:24:28;94266.53;;;25.04;24.89
65359;BME280;52491;45.900;6.346;2023-02-21T01:27:12;94268.41;;;25.03;25.29
65359;BME280;52491;45.900;6.346;2023-02-21T01:29:56;94266.53;;;25.04;24.92
65359;BME280;52491;45.900;6.346;2023-02-21T01:32:40;94258.53;;;25.04;24.54
65359;BME280;52491;45.900;6.346;2023-02-21T01:35:24;94251.06;;;25.00;24.88
65359;BME280;52491;45.900;6.346;2023-02-21T01:38:08;94253.47;;;25.02;24.98
65359;BME280;52491;45.900;6.346;2023-02-21T01:40:52;94250.81;;;25.02;24.80
65359;BME280;52491;45.900;6.346;2023-02-21T01:43:35;94247.34;;;25.01;25.04
65359;BME280;52491;45.900;6.346;2023-02-21T01:46:20;94241.19;;;25.01;24.84
65359;BME280;52491;45.900;6.346;2023-02-21T01:49:10;94240.13;;;25.02;24.57
65359;BME280;52491;45.900;6.346;2023-02-21T01:51:57;94236.69;;;25.01;24.67
65359;BME280;52491;45.900;6.346;2023-02-21T01:54:48;94236.41;;;25.03;24.59
65359;BME280;52491;45.900;6.346;2023-02-21T01:57:34;94231.34;;;25.01;24.50
65359;BME280;52491;45.900;6.346;2023-02-21T02:00:19;94230.50;;;25.01;24.60
65359;BME280;52491;45.900;6.346;2023-02-21T02:03:06;94236.69;;;25.01;24.52
65359;BME280;52491;45.900;6.346;2023-02-21T02:05:58;94224.94;;;25.02;24.66
65359;BME280;52491;45.900;6.346;2023-02-21T02:08:43;94224.94;;;25.02;24.35
65359;BME280;52491;45.900;6.346;2023-02-21T02:17:31;94216.13;;;25.02;24.43
65359;BME280;52491;45.900;6.346;2023-02-21T02:37:34;94215.34;;;25.01;24.57
65359;BME280;52491;45.900;6.346;2023-02-21T02:40:28;94209.16;;;25.01;24.51
65359;BME280;52491;45.900;6.346;2023-02-21T02:43:24;94214.25;;;25.02;24.33
65359;BME280;52491;45.900;6.346;2023-02-21T02:46:09;94209.44;;;24.99;24.40
65359;BME280;52491;45.900;6.346;2023-02-21T02:49:08;94215.06;;;25.03;24.54
65359;BME280;52491;45.900;6.346;2023-02-21T02:51:35;94214.50;;;25.01;24.35
65359;BME280;52491;45.900;6.346;2023-02-21T02:54:01;94208.13;;;25.02;24.30
65359;BME280;52491;45.900;6.346;2023-02-21T02:56:26;94206.25;;;25.02;24.48
65359;BME280;52491;45.900;6.346;2023-02-21T02:59:07;94207.84;;;25.04;24.16
65359;BME280;52491;45.900;6.346;2023-02-21T03:09:38;94211.34;;;25.04;24.34
65359;BME280;52491;45.900;6.346;2023-02-21T03:12:19;94210.28;;;25.05;23.95
65359;BME280;52491;45.900;6.346;2023-02-21T03:15:16;94211.06;;;25.06;24.01
65359;BME280;52491;45.900;6.346;2023-02-21T03:17:47;94207.84;;;25.04;24.37
65359;BME280;52491;45.900;6.346;2023-02-21T03:20:16;94211.34;;;25.04;24.05
65359;BME280;52491;45.900;6.346;2023-02-21T03:22:44;94212.94;;;25.05;24.06
65359;BME280;52491;45.900;6.346;2023-02-21T03:25:12;94211.34;;;25.04;24.01
65359;BME280;52491;45.900;6.346;2023-02-21T03:27:40;94214.81;;;25.05;24.21
65359;BME280;52491;45.900;6.346;2023-02-21T03:30:08;94211.06;;;25.06;24.15
65359;BME280;52491;45.900;6.346;2023-02-21T03:32:48;94218.28;;;25.05;24.10
65359;BME280;52491;45.900;6.346;2023-02-21T03:35:16;94207.84;;;25.04;23.85
65359;BME280;52491;45.900;6.346;2023-02-21T03:37:44;94207.84;;;25.04;24.16
65359;BME280;52491;45.900;6.346;2023-02-21T03:40:14;94210.53;;;25.04;24.27
65359;BME280;52491;45.900;6.346;2023-02-21T03:42:40;94212.41;;;25.03;24.21
65359;BME280;52491;45.900;6.346;2023-02-21T03:45:06;94207.63;;;25.05;23.83
65359;BME280;52491;45.900;6.346;2023-02-21T03:47:32;94217.22;;;25.06;24.09
65359;BME280;52491;45.900;6.346;2023-02-21T03:49:58;94211.06;;;25.06;24.17
65359;BME280;52491;45.900;6.346;2023-02-21T03:52:23;94208.69;;;25.04;24.17
65359;BME280;52491;45.900;6.346;2023-02-21T03:54:49;94203.06;;;25.06;23.96
65359;BME280;52491;45.900;6.346;2023-02-21T03:57:15;94209.75;;;25.08;23.89
65359;BME280;52491;45.900;6.346;2023-02-21T03:59:42;94212.44;;;25.08;24.20
65359;BME280;52491;45.900;6.346;2023-02-21T04:02:08;94207.09;;;25.08;24.21
65359;BME280;52491;45.900;6.346;2023-02-21T04:04:35;94204.97;;;25.10;24.11
65359;BME280;52491;45.900;6.346;2023-02-21T04:07:00;94212.19;;;25.10;23.98
65359;BME280;52491;45.900;6.346;2023-02-21T04:09:26;94211.91;;;25.11;23.97
65359;BME280;52491;45.900;6.346;2023-02-21T04:11:52;94205.22;;;25.09;24.28
65359;BME280;52491;45.900;6.346;2023-02-21T04:14:17;94204.19;;;25.10;24.05
65359;BME280;52491;45.900;6.346;2023-02-21T04:16:43;94208.44;;;25.11;24.03
65359;BME280;52491;45.900;6.346;2023-02-21T04:19:09;94210.03;;;25.12;24.22
65359;BME280;52491;45.900;6.346;2023-02-21T04:21:34;94210.88;;;25.12;24.05
65359;BME280;52491;45.900;6.346;2023-02-21T04:24:00;94205.53;;;25.12;23.82
65359;BME280;52491;45.900;6.346;2023-02-21T04:26:26;94206.31;;;25.13;24.03
65359;BME280;52491;45.900;6.346;2023-02-21T04:28:54;94202.88;;;25.12;24.24
65359;BME280;52491;45.900;6.346;2023-02-21T04:31:21;94203.66;;;25.13;24.22
65359;BME280;52491;45.900;6.346;2023-02-21T04:33:47;94205.53;;;25.12;24.05
65359;BME280;52491;45.900;6.346;2023-02-21T04:36:13;94209.00;;;25.13;24.19
65359;BME280;52491;45.900;6.346;2023-02-21T04:38:39;94206.56;;;25.11;24.11
65359;BME280;52491;45.900;6.346;2023-02-21T04:41:04;94208.44;;;25.11;24.08
65359;BME280;52491;45.900;6.346;2023-02-21T04:43:30;94210.03;;;25.12;23.72
65359;BME280;52491;45.900;6.346;2023-02-21T04:45:56;94202.59;;;25.14;23.75
65359;BME280;52491;45.900;6.346;2023-02-21T04:48:21;94207.91;;;25.14;23.64
65359;BME280;52491;45.900;6.346;2023-02-21T04:50:47;94205.03;;;25.15;24.09
65359;BME280;52491;45.900;6.346;2023-02-21T04:53:13;94207.72;;;25.15;23.83
65359;BME280;52491;45.900;6.346;2023-02-21T04:55:38;94206.63;;;25.16;24.08
65359;BME280;52491;45.900;6.346;2023-02-21T04:58:04;94208.22;;;25.17;23.92
65359;BME280;52491;45.900;6.346;2023-02-21T05:00:30;94212.53;;;25.18;24.09
65359;BME280;52491;45.900;6.346;2023-02-21T05:02:56;94214.41;;;25.18;23.71
65359;BME280;52491;45.900;6.346;2023-02-21T05:05:22;94207.19;;;25.18;23.97
65359;BME280;52491;45.900;6.346;2023-02-21T05:07:47;94209.31;;;25.16;23.98
65359;BME280;52491;45.900;6.346;2023-02-21T05:10:15;94206.38;;;25.18;23.68
65359;BME280;52491;45.900;6.346;2023-02-21T05:12:42;94201.31;;;25.16;23.71
65359;BME280;52491;45.900;6.346;2023-02-21T05:15:11;94204.75;;;25.17;23.91
65359;BME280;52491;45.900;6.346;2023-02-21T05:17:38;94202.88;;;25.17;24.00
65359;BME280;52491;45.900;6.346;2023-02-21T05:20:05;94209.84;;;25.18;23.74
65359;BME280;52491;45.900;6.346;2023-02-21T05:22:31;94203.72;;;25.18;23.97
65359;BME280;52491;45.900;6.346;2023-02-21T05:24:58;94193.03;;;25.18;23.79
65359;BME280;52491;45.900;6.346;2023-02-21T05:27:24;94194.88;;;25.17;23.58
65359;BME280;52491;45.900;6.346;2023-02-21T05:29:51;94201.84;;;25.18;23.82
65359;BME280;52491;45.900;6.346;2023-02-21T05:32:18;94199.97;;;25.19;24.09
65359;BME280;52491;45.900;6.346;2023-02-21T05:34:45;94194.66;;;25.19;23.76
65359;BME280;52491;45.900;6.346;2023-02-21T05:37:13;94193.56;;;25.20;23.96
65359;BME280;52491;45.900;6.346;2023-02-21T05:39:39;94197.03;;;25.20;23.51
65359;BME280;52491;45.900;6.346;2023-02-21T05:42:04;94191.69;;;25.20;23.86
65359;BME280;52491;45.900;6.346;2023-02-21T05:44:30;94190.66;;;25.21;23.72
65359;BME280;52491;45.900;6.346;2023-02-21T05:46:56;94188.78;;;25.22;23.94
65359;BME280;52491;45.900;6.346;2023-02-21T05:49:21;94188.00;;;25.21;23.69
65359;BME280;52491;45.900;6.346;2023-02-21T05:51:47;94185.31;;;25.21;24.08
65359;BME280;52491;45.900;6.346;2023-02-21T05:54:17;94181.03;;;25.20;24.33
65359;BME280;52491;45.900;6.346;2023-02-21T05:56:45;94186.38;;;25.20;24.03
65359;BME280;52491;45.900;6.346;2023-02-21T05:59:12;94181.03;;;25.20;24.45
65359;BME280;52491;45.900;6.346;2023-02-21T06:01:38;94182.38;;;25.18;24.12
65359;BME280;52491;45.900;6.346;2023-02-21T06:04:04;94178.09;;;25.17;24.00
65359;BME280;52491;45.900;6.346;2023-02-21T06:06:32;94173.53;;;25.17;24.19
65359;BME280;52491;45.900;6.346;2023-02-21T06:08:58;94172.50;;;25.18;24.41
65359;BME280;52491;45.900;6.346;2023-02-21T06:11:30;94171.69;;;25.18;24.39
65359;BME280;52491;45.900;6.346;2023-02-21T06:13:59;94167.97;;;25.19;24.19
65359;BME280;52491;45.900;6.346;2023-02-21T06:16:25;94163.94;;;25.16;24.30
65359;BME280;52491;45.900;6.346;2023-02-21T06:18:55;94165.53;;;25.17;24.18
65359;BME280;52491;45.900;6.346;2023-02-21T06:21:21;94166.38;;;25.18;24.28
65359;BME280;52491;45.900;6.346;2023-02-21T06:23:48;94164.50;;;25.18;24.85
65359;BME280;52491;45.900;6.346;2023-02-21T06:26:15;94163.41;;;25.19;24.66
65359;BME280;52491;45.900;6.346;2023-02-21T06:28:41;94159.69;;;25.20;24.80
65359;BME280;52491;45.900;6.346;2023-02-21T06:31:09;94163.97;;;25.21;24.82
65359;BME280;52491;45.900;6.346;2023-02-21T06:33:35;94165.31;;;25.24;24.90
65359;BME280;52491;45.900;6.346;2023-02-21T06:36:11;94158.91;;;25.25;25.05
65359;BME280;52491;45.900;6.346;2023-02-21T06:38:37;94164.53;;;25.23;24.74
65359;BME280;52491;45.900;6.346;2023-02-21T06:41:07;94162.91;;;25.22;24.84
65359;BME280;52491;45.900;6.346;2023-02-21T06:43:33;94174.66;;;25.21;25.24
65359;BME280;52491;45.900;6.346;2023-02-21T06:46:03;94162.34;;;25.20;24.92
65359;BME280;52491;45.900;6.346;2023-02-21T06:48:29;94165.31;;;25.24;25.23
65359;BME280;52491;45.900;6.346;2023-02-21T06:50:55;94160.22;;;25.22;25.42
65359;BME280;52491;45.900;6.346;2023-02-21T06:53:21;94165.56;;;25.22;25.20
65359;BME280;52491;45.900;6.346;2023-02-21T06:55:46;94155.97;;;25.21;25.10
65359;BME280;52491;45.900;6.346;2023-02-21T06:58:12;94163.19;;;25.21;25.35
65359;BME280;52491;45.900;6.346;2023-02-21T07:00:38;94165.00;;;25.20;25.24
65359;BME280;52491;45.900;6.346;2023-02-21T07:03:04;94164.22;;;25.20;25.47
65359;BME280;52491;45.900;6.346;2023-02-21T07:05:29;94174.09;;;25.19;25.55
65359;BME280;52491;45.900;6.346;2023-02-21T07:08:00;94171.44;;;25.19;25.69
65359;BME280;52491;45.900;6.346;2023-02-21T07:10:26;94166.09;;;25.19;25.38
65359;BME280;52491;45.900;6.346;2023-02-21T07:12:52;94166.38;;;25.18;25.44
65359;BME280;52491;45.900;6.346;2023-02-21T07:15:17;94170.88;;;25.17;25.60
65359;BME280;52491;45.900;6.346;2023-02-21T07:17:43;94165.28;;;25.19;25.18
65359;BME280;52491;45.900;6.346;2023-02-21T07:20:09;94166.09;;;25.19;25.49
65359;BME280;52491;45.900;6.346;2023-02-21T07:22:35;94167.97;;;25.19;25.33
65359;BME280;52491;45.900;6.346;2023-02-21T07:25:00;94163.41;;;25.19;25.44
65359;BME280;52491;45.900;6.346;2023-02-21T07:27:26;94162.88;;;25.17;25.08
65359;BME280;52491;45.900;6.346;2023-02-21T07:29:51;94165.28;;;25.19;25.45
65359;BME280;52491;45.900;6.346;2023-02-21T07:32:17;94161.81;;;25.18;25.23
65359;BME280;52491;45.900;6.346;2023-02-21T07:34:43;94164.50;;;25.18;25.39
65359;BME280;52491;45.900;6.346;2023-02-21T07:37:09;94159.16;;;25.18;25.21
65359;BME280;52491;45.900;6.346;2023-02-21T07:39:35;94159.69;;;25.20;25.24
65359;BME280;52491;45.900;6.346;2023-02-21T07:42:03;94157.28;;;25.19;25.11
65359;BME280;52491;45.900;6.346;2023-02-21T07:44:29;94159.16;;;25.18;25.21
65359;BME280;52491;45.900;6.346;2023-02-21T07:46:56;94152.19;;;25.17;25.06
65359;BME280;52491;45.900;6.346;2023-02-21T07:49:22;94155.69;;;25.18;25.24
65359;BME280;52491;45.900;6.346;2023-02-21T07:51:48;94151.16;;;25.18;24.89
65359;BME280;52491;45.900;6.346;2023-02-21T07:54:15;94152.19;;;25.17;25.13
65359;BME280;52491;45.900;6.346;2023-02-21T07:56:45;94157.28;;;25.19;24.99
65359;BME280;52491;45.900;6.346;2023-02-21T07:59:12;94156.50;;;25.18;24.91
65359;BME280;52491;45.900;6.346;2023-02-21T08:01:38;94148.50;;;25.18;25.12
65359;BME280;52491;45.900;6.346;2023-02-21T08:04:03;94150.09;;;25.19;25.01
65359;BME280;52491;45.900;6.346;2023-02-21T08:06:29;94139.41;;;25.19;24.82
65359;BME280;52491;45.900;6.346;2023-02-21T08:08:55;94147.41;;;25.19;25.04
65359;BME280;52491;45.900;6.346;2023-02-21T08:11:21;94131.41;;;25.19;24.63
65359;BME280;52491;45.900;6.346;2023-02-21T08:13:46;94125.28;;;25.19;25.02
65359;BME280;52491;45.900;6.346;2023-02-21T08:16:12;94123.69;;;25.18;25.02
65359;BME280;52491;45.900;6.346;2023-02-21T08:18:38;94121.81;;;25.18;24.84
65359;BME280;52491;45.900;6.346;2023-02-21T08:21:08;94121.53;;;25.20;24.85
65359;BME280;52491;45.900;6.346;2023-02-21T08:23:33;94123.69;;;25.18;24.97
65359;BME280;52491;45.900;6.346;2023-02-21T08:25:59;94115.66;;;25.18;24.62
65359;BME280;52491;45.900;6.346;2023-02-21T08:28:25;94113.00;;;25.18;24.84
65359;BME280;52491;45.900;6.346;2023-02-21T08:30:50;94114.03;;;25.17;24.68
65359;BME280;52491;45.900;6.346;2023-02-21T08:33:18;94102.56;;;25.16;24.54
65359;BME280;52491;45.900;6.346;2023-02-21T08:35:43;94103.38;;;25.17;24.95
65359;BME280;52491;45.900;6.346;2023-02-21T08:38:09;94100.97;;;25.15;24.63
65359;BME280;52491;45.900;6.346;2023-02-21T08:40:35;94098.84;;;25.17;24.67
65359;BME280;52491;45.900;6.346;2023-02-21T08:43:00;94108.47;;;25.18;24.53
65359;BME280;52491;45.900;6.346;2023-02-21T08:45:27;94100.47;;;25.18;24.77
65359;BME280;52491;45.900;6.346;2023-02-21T08:47:54;94092.44;;;25.18;24.75
65359;BME280;52491;45.900;6.346;2023-02-21T08:50:21;94094.03;;;25.19;24.69
65359;BME280;52491;45.900;6.346;2023-02-21T08:52:48;94091.13;;;25.21;24.44
65359;BME280;52491;45.900;6.346;2023-02-21T08:55:14;94098.84;;;25.22;24.98
65359;BME280;52491;45.900;6.346;2023-02-21T08:57:40;94080.19;;;25.22;24.95
65359;BME280;52491;45.900;6.346;2023-02-21T09:00:07;94086.06;;;25.25;24.74
65359;BME280;52491;45.900;6.346;2023-02-21T09:02:37;94087.13;;;25.23;24.45
65359;BME280;52491;45.900;6.346;2023-02-21T09:05:14;94081.81;;;25.23;24.84
65359;BME280;52491;45.900;6.346;2023-02-21T09:07:40;94079.13;;;25.23;24.58
65359;BME280;52491;45.900;6.346;2023-02-21T09:10:07;94090.59;;;25.24;24.52
65359;BME280;52491;45.900;6.346;2023-02-21T09:12:35;94086.88;;;25.25;24.45
65359;BME280;52491;45.900;6.346;2023-02-21T09:15:02;94086.88;;;25.25;24.92
65359;BME280;52491;45.900;6.346;2023-02-21T09:17:28;94075.38;;;25.25;24.70
65359;BME280;52491;45.900;6.346;2023-02-21T09:19:59;94074.31;;;25.26;24.42
65359;BME280;52491;45.900;6.346;2023-02-21T09:22:25;94067.94;;;25.27;24.59
65359;BME280;52491;45.900;6.346;2023-02-21T09:24:50;94079.41;;;25.27;24.67
65359;BME280;52491;45.900;6.346;2023-02-21T09:27:16;94074.88;;;25.28;24.69
65359;BME280;52491;45.900;6.346;2023-02-21T09:29:42;94073.78;;;25.29;24.86
65359;BME280;52491;45.900;6.346;2023-02-21T09:32:09;94074.88;;;25.28;24.60
65359;BME280;52491;45.900;6.346;2023-02-21T09:34:35;94071.41;;;25.27;24.68
65359;BME280;52491;45.900;6.346;2023-02-21T09:37:04;94063.94;;;25.29;24.87
65359;BME280;52491;45.900;6.346;2023-02-21T09:39:30;94065.78;;;25.29;24.98
65359;BME280;52491;45.900;6.346;2023-02-21T09:41:55;94071.13;;;25.29;24.42
65359;BME280;52491;45.900;6.346;2023-02-21T09:44:27;94066.31;;;25.31;24.94
65359;BME280;52491;45.900;6.346;2023-02-21T09:46:59;94061.53;;;25.33;24.91
65359;BME280;52491;45.900;6.346;2023-02-21T09:49:38;94054.56;;;25.32;24.96
65359;BME280;52491;45.900;6.346;2023-02-21T09:52:11;94061.53;;;25.33;24.74
65359;BME280;52491;45.900;6.346;2023-02-21T09:54:45;94053.25;;;25.34;24.79
65359;BME280;52491;45.900;6.346;2023-02-21T09:57:17;94053.78;;;25.36;24.47
65359;BME280;52491;45.900;6.346;2023-02-21T09:59:43;94051.91;;;25.37;24.64
65359;BME280;52491;45.900;6.346;2023-02-21T10:04:54;94042.03;;;25.37;25.03
65359;BME280;52491;45.900;6.346;2023-02-21T10:07:41;94038.56;;;25.37;24.84
65359;BME280;52491;45.900;6.346;2023-02-21T10:10:16;94035.91;;;25.37;24.97
65359;BME280;52491;45.900;6.346;2023-02-21T10:12:55;94035.38;;;25.40;25.11
65359;BME280;52491;45.900;6.346;2023-02-21T10:18:37;94033.25;;;25.42;24.77
65359;BME280;52491;45.900;6.346;2023-02-21T10:21:21;94029.00;;;25.41;24.95
65359;BME280;52491;45.900;6.346;2023-02-21T10:23:50;94034.31;;;25.41;24.69
65359;BME280;52491;45.900;6.346;2023-02-21T10:26:22;94025.78;;;25.44;25.16
65359;BME280;52491;45.900;6.346;2023-02-21T10:28:49;94024.44;;;25.41;25.07
65359;BME280;52491;45.900;6.346;2023-02-21T10:31:27;94024.44;;;25.41;25.18
65359;BME280;52491;45.900;6.346;2023-02-21T10:33:54;94017.53;;;25.40;25.13
65359;BME280;52491;45.900;6.346;2023-02-21T10:36:21;94024.16;;;25.43;25.10
65359;BME280;52491;45.900;6.346;2023-02-21T10:38:54;94018.03;;;25.42;25.00
65359;BME280;52491;45.900;6.346;2023-02-21T10:41:22;94015.91;;;25.44;25.22
65359;BME280;52491;45.900;6.346;2023-02-21T10:43:56;94013.00;;;25.46;25.33
65359;BME280;52491;45.900;6.346;2023-02-21T10:46:29;93999.66;;;25.46;25.34
65359;BME280;52491;45.900;6.346;2023-02-21T10:49:22;94000.16;;;25.48;24.98
65359;BME280;52491;45.900;6.346;2023-02-21T10:52:03;94002.03;;;25.48;25.06
65359;BME280;52491;45.900;6.346;2023-02-21T10:54:30;93999.09;;;25.49;25.33
65359;BME280;52491;45.900;6.346;2023-02-21T10:56:58;93992.69;;;25.50;25.05
65359;BME280;52491;45.900;6.346;2023-02-21T10:59:28;93994.28;;;25.51;25.00
65359;BME280;52491;45.900;6.346;2023-02-21T11:01:55;93990.56;;;25.52;25.27
65359;BME280;52491;45.900;6.346;2023-02-21T11:04:28;93986.81;;;25.53;25.16
65359;BME280;52491;45.900;6.346;2023-02-21T11:07:05;93984.16;;;25.53;25.05
65359;BME280;52491;45.900;6.346;2023-02-21T11:09:40;93976.94;;;25.54;25.05
65359;BME280;52491;45.900;6.346;2023-02-21T11:14:41;93967.88;;;25.55;25.09
65359;BME280;52491;45.900;6.346;2023-02-21T11:22:40;93945.44;;;25.56;25.38
65359;BME280;52491;45.900;6.346;2023-02-21T11:25:26;93944.91;;;25.59;25.06
65359;BME280;52491;45.900;6.346;2023-02-21T11:31:12;93937.44;;;25.61;25.01
65359;BME280;52491;45.900;6.346;2023-02-21T11:33:43;93923.28;;;25.60;25.09
65359;BME280;52491;45.900;6.346;2023-02-21T11:36:18;93927.53;;;25.61;25.11
65359;BME280;52491;45.900;6.346;2023-02-21T11:39:00;93914.72;;;25.63;25.50
65359;BME280;52491;45.900;6.346;2023-02-21T11:41:30;93910.44;;;25.62;25.11
65359;BME280;52491;45.900;6.346;2023-02-21T11:43:59;93903.25;;;25.63;25.19
65359;BME280;52491;45.900;6.346;2023-02-21T11:46:43;93901.09;;;25.65;25.15
65359;BME280;52491;45.900;6.346;2023-02-21T11:51:53;93890.72;;;25.63;25.44
65359;BME280;52491;45.900;6.346;2023-02-21T11:54:25;93888.28;;;25.67;25.00
65359;BME280;52491;45.900;6.346;2023-02-21T12:08:26;93851.44;;;25.69;25.44
65359;BME280;52491;45.900;6.346;2023-02-21T12:21:48;93834.34;;;25.75;25.85
65359;BME280;52491;45.900;6.346;2023-02-21T12:27:08;93818.31;;;25.75;25.74
65359;BME280;52491;45.900;6.346;2023-02-21T12:32:23;93816.19;;;25.77;25.80
65359;BME280;52491;45.900;6.346;2023-02-21T12:35:20;93814.84;;;25.80;26.02
65359;BME280;52491;45.900;6.346;2023-02-21T12:38:19;93805.75;;;25.81;25.95
65359;BME280;52491;45.900;6.346;2023-02-21T12:46:27;93791.31;;;25.82;26.11
65359;BME280;52491;45.900;6.346;2023-02-21T12:48:58;93788.41;;;25.83;26.40
65359;BME280;52491;45.900;6.346;2023-02-21T12:51:32;93790.78;;;25.85;26.39
65359;BME280;52491;45.900;6.346;2023-02-21T12:54:11;93776.38;;;25.86;26.29
65359;BME280;52491;45.900;6.346;2023-02-21T12:57:00;93772.63;;;25.87;26.39
65359;BME280;52491;45.900;6.346;2023-02-21T13:03:02;93765.69;;;25.91;26.60
65359;BME280;52491;45.900;6.346;2023-02-21T13:05:38;93762.19;;;25.90;25.96
65359;BME280;52491;45.900;6.346;2023-02-21T13:08:20;93758.47;;;25.92;26.23
65359;BME280;52491;45.900;6.346;2023-02-21T13:13:40;93755.22;;;25.95;26.18
65359;BME280;52491;45.900;6.346;2023-02-21T13:16:08;93746.66;;;25.98;25.71
65359;BME280;52491;45.900;6.346;2023-02-21T13:19:02;93744.78;;;25.98;26.01
65359;BME280;52491;45.900;6.346;2023-02-21T13:25:00;93734.09;;;25.98;25.87
65359;BME280;52491;45.900;6.346;2023-02-21T13:27:44;93732.50;;;25.97;25.98
65359;BME280;52491;45.900;6.346;2023-02-21T13:33:00;93722.88;;;25.96;26.17
65359;BME280;52491;45.900;6.346;2023-02-21T13:35:35;93713.81;;;25.97;26.14
65359;BME280;52491;45.900;6.346;2023-02-21T13:38:04;93713.53;;;25.99;25.89
65359;BME280;52491;45.900;6.346;2023-02-21T13:40:52;93713.25;;;26.00;26.19
65359;BME280;52491;45.900;6.346;2023-02-21T13:43:22;93708.19;;;25.99;25.94
65359;BME280;52491;45.900;6.346;2023-02-21T13:45:49;93709.00;;;25.99;25.98
65359;BME280;52491;45.900;6.346;2023-02-21T13:48:27;93699.63;;;26.02;25.79
65359;BME280;52491;45.900;6.346;2023-02-21T13:50:58;93703.09;;;26.02;25.86
65359;BME280;52491;45.900;6.346;2023-02-21T13:53:30;93696.41;;;26.05;26.12
65359;BME280;52491;45.900;6.346;2023-02-21T13:58:47;93692.38;;;26.07;26.38
65359;BME280;52491;45.900;6.346;2023-02-21T14:03:58;93691.06;;;26.05;26.06
65359;BME280;52491;45.900;6.346;2023-02-21T14:09:18;93687.03;;;26.07;25.92
65359;BME280;52491;45.900;6.346;2023-02-21T14:11:47;93684.09;;;26.09;25.93
65359;BME280;52491;45.900;6.346;2023-02-21T14:14:24;93680.31;;;26.10;26.05
65359;BME280;52491;45.900;6.346;2023-02-21T14:17:07;93680.84;;;26.12;26.14
65359;BME280;52491;45.900;6.346;2023-02-21T14:19:42;93676.59;;;26.11;25.93
65359;BME280;52491;45.900;6.346;2023-02-21T14:22:23;93674.72;;;26.11;26.18
65359;BME280;52491;45.900;6.346;2023-02-21T14:24:51;93668.59;;;26.11;25.92
65359;BME280;52491;45.900;6.346;2023-02-21T14:32:50;93663.72;;;26.13;25.86
65359;BME280;52491;45.900;6.346;2023-02-21T14:38:03;93667.72;;;26.16;25.81
65359;BME280;52491;45.900;6.346;2023-02-21T14:46:29;93660.25;;;26.18;25.97
65359;BME280;52491;45.900;6.346;2023-02-21T14:49:31;93664.53;;;26.19;25.81
65359;BME280;52491;45.900;6.346;2023-02-21T15:04:03;93661.84;;;26.19;25.63
65359;BME280;52491;45.900;6.346;2023-02-21T15:06:33;93665.59;;;26.18;25.76
65359;BME280;52491;45.900;6.346;2023-02-21T15:09:11;93665.03;;;26.21;25.78
65359;BME280;52491;45.900;6.346;2023-02-21T15:11:38;93663.44;;;26.20;25.81
65359;BME280;52491;45.900;6.346;2023-02-21T15:14:11;93665.03;;;26.21;25.89
65359;BME280;52491;45.900;6.346;2023-02-21T15:16:42;93668.22;;;26.23;25.86
65359;BME280;52491;45.900;6.346;2023-02-21T15:19:19;93666.63;;;26.22;25.78
65359;BME280;52491;45.900;6.346;2023-02-21T15:21:45;93663.97;;;26.22;25.63
65359;BME280;52491;45.900;6.346;2023-02-21T15:24:12;93666.63;;;26.22;25.59
65359;BME280;52491;45.900;6.346;2023-02-21T15:26:38;93666.63;;;26.22;25.61
65359;BME280;52491;45.900;6.346;2023-02-21T15:29:16;93661.78;;;26.24;26.13
65359;BME280;52491;45.900;6.346;2023-02-21T15:31:43;93658.31;;;26.23;25.97
65359;BME280;52491;45.900;6.346;2023-02-21T15:34:38;93669.00;;;26.23;26.00
65359;BME280;52491;45.900;6.346;2023-02-21T15:39:34;93656.75;;;26.22;25.84
65359;BME280;52491;45.900;6.346;2023-02-21T15:42:03;93654.84;;;26.23;25.88